Time;durP1;ratioP1;P1;durP2;ratioP2;P2;SDS_P1;SDS_P2;PMS_P1;PMS_P2;Temp;Humidity;BMP_temperature;BMP_pressure;BME280_temperature;BME280_humidity;BME280_pressure;Samples;Min_cycle;Max_cycle;Signal;HPM_P1;HPM_P2
2023/06/01 12:10:56;;;;;;;7.97;1.77;;;33.90;62.60;;;;;;5130157;27;20462;-65
2023/06/01 12:13:24;;;;;;;3.17;1.65;;;33.70;62.70;;;;;;5130076;27;20580;-64
2023/06/01 12:15:52;;;;;;;2.75;1.75;;;33.90;65.50;;;;;;5130057;28;20214;-65
2023/06/01 12:18:29;;;;;;;2.28;1.85;;;34.00;61.30;;;;;;5130021;28;20230;-67
2023/06/01 12:20:57;;;;;;;2.97;1.88;;;34.00;59.90;;;;;;5129020;28;20206;-61
2023/06/01 12:23:25;;;;;;;3.35;2.10;;;33.80;58.90;;;;;;5129678;27;20206;-60
2023/06/01 12:25:56;;;;;;;3.95;1.67;;;33.60;59.20;;;;;;5129496;27;20293;-65
2023/06/01 12:28:24;;;;;;;5.43;1.80;;;33.50;62.20;;;;;;5129965;27;20251;-63
2023/06/01 12:31:12;;;;;;;2.15;1.67;;;33.60;62.50;;;;;;5129754;27;20252;-64
2023/06/01 12:33:41;;;;;;;3.50;2.03;;;33.80;59.90;;;;;;5129809;27;20198;-64
2023/06/01 12:36:09;;;;;;;6.80;1.45;;;34.10;62.10;;;;;;5129499;27;20305;-64
2023/06/01 12:38:37;;;;;;;5.50;1.90;;;34.30;60.30;;;;;;5129537;27;20314;-64
2023/06/01 12:41:11;;;;;;;3.15;1.90;;;34.50;59.40;;;;;;5129604;27;20242;-65
2023/06/01 12:43:39;;;;;;;5.53;1.92;;;34.60;57.90;;;;;;5129665;27;20207;-64
2023/06/01 12:46:07;;;;;;;1.67;1.67;;;34.50;58.90;;;;;;5129242;27;20199;-64
2023/06/01 12:48:37;;;;;;;2.53;2.03;;;34.40;57.90;;;;;;5129453;27;20222;-65
2023/06/01 12:51:05;;;;;;;2.28;1.85;;;34.20;59.10;;;;;;5129305;27;20218;-64
2023/06/01 12:53:33;;;;;;;4.00;1.90;;;34.20;59.50;;;;;;5129300;27;20207;-64
2023/06/01 12:56:01;;;;;;;1.92;1.77;;;34.50;59.30;;;;;;5126595;27;20210;-65
2023/06/01 12:58:30;;;;;;;4.53;1.70;;;34.60;60.10;;;;;;5129073;27;20218;-64
2023/06/01 13:00:58;;;;;;;2.83;1.85;;;34.70;58.40;;;;;;5108553;28;20231;-65
2023/06/01 13:03:26;;;;;;;3.55;1.40;;;34.60;58.90;;;;;;5108604;28;20739;-65
2023/06/01 13:05:54;;;;;;;4.50;1.80;;;34.80;61.40;;;;;;5108572;28;20203;-64
2023/06/01 13:08:22;;;;;;;1.80;1.70;;;34.80;59.80;;;;;;5108667;28;20207;-64
2023/06/01 13:10:50;;;;;;;5.65;1.77;;;34.90;57.40;;;;;;5117428;28;20223;-64
2023/06/01 13:13:18;;;;;;;5.03;2.05;;;34.90;60.20;;;;;;5128883;27;20704;-65
2023/06/01 13:15:48;;;;;;;3.15;1.90;;;35.00;61.60;;;;;;5128857;27;20226;-65
2023/06/01 13:18:16;;;;;;;4.20;2.20;;;34.90;59.20;;;;;;5128984;27;20264;-64
2023/06/01 13:20:44;;;;;;;3.78;1.83;;;34.40;58.20;;;;;;5123798;27;20196;-64
2023/06/01 13:23:12;;;;;;;2.65;1.77;;;34.20;59.80;;;;;;5115249;28;20255;-64
2023/06/01 13:25:40;;;;;;;4.80;1.95;;;34.50;63.30;;;;;;5114809;28;20204;-64
2023/06/01 13:28:08;;;;;;;3.03;2.25;;;34.80;59.20;;;;;;5114909;28;20579;-65
2023/06/01 13:30:36;;;;;;;10.02;2.47;;;34.90;60.50;;;;;;5114822;28;20231;-65
2023/06/01 13:33:06;;;;;;;3.15;2.10;;;35.10;60.80;;;;;;5113749;27;20207;-65
2023/06/01 13:35:34;;;;;;;4.50;1.60;;;35.40;60.50;;;;;;5115125;27;20229;-65
2023/06/01 13:38:02;;;;;;;4.50;1.48;;;35.30;56.40;;;;;;5114808;28;20195;-64
2023/06/01 13:40:30;;;;;;;3.17;1.92;;;35.40;57.30;;;;;;5114503;28;20223;-64
2023/06/01 13:42:58;;;;;;;2.15;1.98;;;35.30;59.20;;;;;;5115132;28;20218;-65
2023/06/01 13:45:26;;;;;;;2.88;1.58;;;35.20;60.50;;;;;;5114667;28;20243;-65
2023/06/01 13:47:55;;;;;;;6.63;2.22;;;35.50;58.80;;;;;;5114371;28;20199;-65
2023/06/01 13:50:25;;;;;;;3.10;1.80;;;35.50;59.70;;;;;;5111949;27;20219;-65
2023/06/01 13:52:53;;;;;;;2.67;2.00;;;35.60;57.50;;;;;;5111228;27;21203;-65
2023/06/01 13:55:21;;;;;;;4.07;1.92;;;35.60;57.20;;;;;;5116891;27;20290;-65
2023/06/01 13:57:50;;;;;;;2.65;1.90;;;35.50;58.80;;;;;;5102580;27;20211;-66
2023/06/01 14:00:19;;;;;;;2.92;1.83;;;35.60;59.20;;;;;;5100463;27;20860;-65
2023/06/01 14:02:49;;;;;;;3.60;2.08;;;35.60;58.60;;;;;;5112754;28;20666;-65
2023/06/01 14:05:18;;;;;;;4.70;1.80;;;35.70;59.60;;;;;;5108348;27;20586;-65
2023/06/01 14:07:56;;;;;;;3.13;1.83;;;35.70;59.30;;;;;;5112120;28;20296;-65
2023/06/01 14:10:24;;;;;;;4.72;1.90;;;35.60;57.10;;;;;;5112918;28;20713;-65
2023/06/01 14:12:52;;;;;;;4.53;2.03;;;35.60;58.40;;;;;;5104654;27;20215;-66
2023/06/01 14:15:20;;;;;;;2.80;2.33;;;35.50;60.00;;;;;;5112557;28;20230;-65
2023/06/01 14:17:50;;;;;;;5.70;2.15;;;35.60;58.70;;;;;;5110999;28;20256;-65
2023/06/01 14:20:17;;;;;;;5.60;2.28;;;35.60;59.30;;;;;;5108136;28;20259;-65
2023/06/01 14:22:46;;;;;;;3.95;1.77;;;35.70;57.70;;;;;;5107153;28;20243;-65
2023/06/01 14:25:15;;;;;;;4.13;1.73;;;35.80;58.90;;;;;;5108181;28;20206;-65
2023/06/01 14:27:43;;;;;;;5.65;2.30;;;35.90;58.40;;;;;;5111889;28;20290;-65
2023/06/01 14:30:11;;;;;;;2.88;2.20;;;36.00;58.00;;;;;;5112378;28;20310;-65
2023/06/01 14:32:39;;;;;;;3.55;1.92;;;35.70;58.90;;;;;;5111975;28;20192;-66
2023/06/01 14:35:08;;;;;;;2.30;2.10;;;35.70;59.10;;;;;;5113935;28;20214;-65
2023/06/01 14:37:37;;;;;;;2.38;2.17;;;35.40;58.00;;;;;;5114193;28;20199;-65
2023/06/01 14:40:17;;;;;;;2.33;2.13;;;35.20;58.00;;;;;;5113985;28;20276;-65
2023/06/01 14:42:45;;;;;;;4.57;1.70;;;35.20;57.40;;;;;;5113007;28;20302;-65
2023/06/01 14:45:13;;;;;;;3.63;2.03;;;35.30;59.50;;;;;;5112147;28;20232;-65
2023/06/01 14:47:41;;;;;;;4.57;2.22;;;35.30;58.40;;;;;;5112337;27;20876;-65
2023/06/01 14:50:10;;;;;;;3.95;2.40;;;35.40;57.40;;;;;;5106404;28;20219;-65
2023/06/01 14:52:39;;;;;;;3.33;1.88;;;35.50;57.20;;;;;;5108901;27;20203;-65
2023/06/01 14:55:07;;;;;;;3.13;2.17;;;35.40;59.70;;;;;;5102241;27;20351;-66
2023/06/01 14:57:37;;;;;;;3.80;2.00;;;35.40;59.10;;;;;;5108688;27;20229;-65
2023/06/01 15:00:05;;;;;;;1.95;1.85;;;35.50;58.50;;;;;;5105657;27;20644;-66
2023/06/01 15:02:33;;;;;;;2.90;2.20;;;35.50;58.70;;;;;;5103726;28;20195;-65
2023/06/01 15:05:05;;;;;;;7.10;2.22;;;35.40;60.40;;;;;;5103411;28;20240;-65
2023/06/01 15:07:33;;;;;;;8.18;2.60;;;35.40;58.70;;;;;;5103077;28;20241;-66
2023/06/01 15:10:01;;;;;;;1.92;1.75;;;35.20;59.10;;;;;;5100872;28;20258;-66
2023/06/01 15:12:28;;;;;;;3.60;1.98;;;35.40;59.30;;;;;;5102674;28;20657;-65
2023/06/01 15:14:58;;;;;;;11.50;2.38;;;35.50;58.80;;;;;;5100572;28;20275;-65
2023/06/01 15:17:25;;;;;;;5.53;2.28;;;35.50;59.70;;;;;;5102871;28;20554;-66
2023/06/01 15:19:54;;;;;;;7.28;2.50;;;35.40;60.40;;;;;;5101215;28;20702;-65
2023/06/01 15:22:22;;;;;;;4.57;1.83;;;35.40;58.60;;;;;;5102427;28;20223;-65
2023/06/01 15:24:49;;;;;;;2.20;2.10;;;35.10;58.40;;;;;;5102779;28;20295;-65
2023/06/01 15:27:19;;;;;;;4.35;2.30;;;34.90;58.90;;;;;;5091925;28;20608;-65
2023/06/01 15:29:47;;;;;;;4.60;2.47;;;34.70;60.60;;;;;;5091920;28;20230;-65
2023/06/01 15:32:16;;;;;;;2.45;2.33;;;34.50;61.90;;;;;;5092054;28;20247;-65
2023/06/01 15:34:44;;;;;;;5.03;2.40;;;34.40;63.30;;;;;;5091749;28;20671;-65
2023/06/01 15:37:12;;;;;;;3.83;2.15;;;34.40;61.10;;;;;;5100961;28;20199;-65
2023/06/01 15:39:40;;;;;;;2.50;2.20;;;34.30;62.00;;;;;;5102411;28;20303;-65
2023/06/01 15:42:09;;;;;;;5.68;2.40;;;34.10;62.50;;;;;;5109377;28;20196;-65
2023/06/01 15:44:40;;;;;;;3.03;2.38;;;34.00;63.90;;;;;;5112175;28;20286;-65
2023/06/01 15:47:08;;;;;;;5.15;2.28;;;33.90;64.90;;;;;;5103263;28;20725;-65
2023/06/01 15:49:37;;;;;;;4.50;2.50;;;33.80;64.20;;;;;;5101814;28;20243;-65
2023/06/01 15:52:06;;;;;;;4.55;2.78;;;33.60;63.70;;;;;;5102653;28;20280;-65
2023/06/01 15:54:34;;;;;;;4.20;2.40;;;33.30;65.80;;;;;;5101222;28;20204;-65
2023/06/01 15:57:03;;;;;;;2.53;2.33;;;33.40;64.70;;;;;;5103744;28;20223;-65
2023/06/01 15:59:31;;;;;;;5.32;2.75;;;33.50;64.70;;;;;;5101701;28;20219;-65
2023/06/01 16:02:00;;;;;;;3.13;2.70;;;33.40;63.10;;;;;;5102003;28;20550;-65
2023/06/01 16:04:28;;;;;;;3.90;3.55;;;33.40;64.40;;;;;;5103090;28;20211;-65
2023/06/01 16:06:58;;;;;;;5.32;4.20;;;33.30;64.00;;;;;;5101282;28;20307;-65
2023/06/01 16:09:25;;;;;;;11.43;4.80;;;33.10;64.20;;;;;;5101014;28;20254;-65
2023/06/01 16:11:53;;;;;;;5.45;5.05;;;32.70;63.60;;;;;;5100442;28;20215;-65
2023/06/01 16:14:21;;;;;;;6.40;4.05;;;32.40;63.80;;;;;;5099998;28;20224;-65
2023/06/01 16:16:50;;;;;;;7.50;5.00;;;32.00;65.20;;;;;;5101651;28;20288;-65
2023/06/01 16:19:18;;;;;;;6.15;5.40;;;31.60;66.00;;;;;;5104761;28;20702;-64
2023/06/01 16:21:46;;;;;;;8.52;5.35;;;31.30;66.20;;;;;;5100756;28;20666;-65
2023/06/01 16:24:15;;;;;;;8.10;5.30;;;31.30;65.20;;;;;;5104128;28;20203;-66
2023/06/01 16:26:43;;;;;;;7.35;5.75;;;31.10;64.20;;;;;;5099682;28;20227;-65
2023/06/01 16:29:11;;;;;;;7.28;5.95;;;30.90;64.70;;;;;;5102882;28;20219;-66
2023/06/01 16:31:40;;;;;;;8.75;6.20;;;30.60;65.10;;;;;;5099602;28;20219;-65
2023/06/01 16:34:08;;;;;;;7.82;6.30;;;30.10;64.80;;;;;;5101105;28;20201;-65
2023/06/01 16:36:36;;;;;;;7.10;6.18;;;29.70;64.40;;;;;;5100031;28;20241;-65
2023/06/01 16:39:05;;;;;;;9.15;6.63;;;29.30;65.40;;;;;;5109644;28;20236;-65
2023/06/01 16:41:34;;;;;;;10.32;7.00;;;29.10;64.80;;;;;;5103386;28;20191;-65
2023/06/01 16:44:02;;;;;;;7.50;6.80;;;28.90;64.90;;;;;;5102144;28;20235;-65
2023/06/01 16:46:30;;;;;;;9.13;6.78;;;28.60;64.60;;;;;;5103340;28;20230;-65
2023/06/01 16:48:58;;;;;;;14.40;7.22;;;28.40;64.60;;;;;;5102793;28;20224;-65
2023/06/01 16:51:26;;;;;;;10.07;6.75;;;28.30;66.40;;;;;;5100562;28;20219;-64
2023/06/01 16:53:56;;;;;;;8.25;7.22;;;28.40;65.90;;;;;;5100394;28;20211;-65
2023/06/01 16:56:24;;;;;;;7.60;6.85;;;28.60;65.50;;;;;;5100227;28;20204;-65
2023/06/01 16:58:53;;;;;;;7.35;6.65;;;28.70;64.50;;;;;;5104081;28;20302;-65
2023/06/01 17:01:21;;;;;;;8.38;6.90;;;28.80;64.70;;;;;;5109749;28;20322;-65
2023/06/01 17:03:49;;;;;;;7.32;6.72;;;28.80;62.90;;;;;;5104518;28;20204;-65
2023/06/01 17:06:20;;;;;;;7.40;6.63;;;28.80;64.50;;;;;;5104188;28;20196;-65
2023/06/01 17:08:48;;;;;;;11.77;6.80;;;28.60;65.60;;;;;;5111875;28;20234;-65
2023/06/01 17:11:16;;;;;;;9.35;6.88;;;28.50;64.70;;;;;;5115383;28;20203;-65
2023/06/01 17:13:44;;;;;;;8.18;6.50;;;28.40;62.30;;;;;;5114360;28;20293;-65
2023/06/01 17:16:13;;;;;;;8.48;7.57;;;28.30;61.20;;;;;;5113419;28;20195;-65
2023/06/01 17:18:41;;;;;;;7.72;6.97;;;28.20;59.80;;;;;;5115370;28;20299;-65
2023/06/01 17:21:09;;;;;;;8.48;7.57;;;28.00;61.90;;;;;;5115124;28;20203;-65
2023/06/01 17:23:37;;;;;;;9.20;7.43;;;27.80;62.60;;;;;;5115440;28;20203;-65
2023/06/01 17:26:05;;;;;;;12.05;7.88;;;27.70;62.90;;;;;;5114940;28;20674;-65
2023/06/01 17:31:02;;;;;;;12.30;8.90;;;27.60;63.00;;;;;;5032875;28;20256;-59
2023/06/01 17:33:31;;;;;;;13.80;9.02;;;27.60;65.90;;;;;;5034367;28;20222;-60
2023/06/01 17:35:59;;;;;;;9.27;8.40;;;27.40;63.90;;;;;;5033907;28;20209;-59
2023/06/01 17:38:27;;;;;;;10.68;9.38;;;27.20;66.10;;;;;;5034590;28;20283;-60
2023/06/01 17:40:55;;;;;;;11.45;9.40;;;27.10;67.50;;;;;;5014526;28;20250;-60
2023/06/01 17:43:23;;;;;;;14.85;9.57;;;27.00;67.20;;;;;;5014335;28;20670;-60
2023/06/01 17:45:51;;;;;;;10.95;8.60;;;27.00;67.50;;;;;;5014152;28;20755;-60
2023/06/01 17:48:19;;;;;;;11.18;8.77;;;26.80;66.40;;;;;;5014060;28;20213;-60
2023/06/01 17:50:49;;;;;;;9.60;8.68;;;26.60;66.20;;;;;;5014172;28;20314;-60
2023/06/01 17:53:20;;;;;;;13.40;9.88;;;26.50;65.60;;;;;;5014229;28;20265;-60
2023/06/01 17:55:51;;;;;;;13.18;8.98;;;26.30;67.00;;;;;;5014123;28;20285;-60
2023/06/01 17:58:19;;;;;;;14.57;9.32;;;26.30;69.00;;;;;;5014131;28;20293;-60
2023/06/01 18:00:47;;;;;;;13.93;8.52;;;26.10;69.10;;;;;;5013998;28;20227;-60
2023/06/01 18:03:15;;;;;;;14.25;9.23;;;26.00;68.50;;;;;;5014415;28;20245;-60
2023/06/01 18:05:43;;;;;;;24.17;8.77;;;25.90;69.50;;;;;;5013917;28;20643;-60
2023/06/01 18:08:12;;;;;;;8.32;7.28;;;25.80;70.50;;;;;;5013968;28;20678;-60
2023/06/01 18:10:41;;;;;;;11.55;7.80;;;25.70;69.20;;;;;;5013832;28;20237;-60
2023/06/01 18:13:09;;;;;;;9.55;6.82;;;25.60;69.40;;;;;;5013872;28;20222;-60
2023/06/01 18:15:37;;;;;;;10.13;7.38;;;25.40;69.70;;;;;;5013349;28;20249;-59
2023/06/01 18:18:05;;;;;;;13.38;7.43;;;25.30;69.90;;;;;;5014140;28;20265;-60
2023/06/01 18:20:33;;;;;;;13.30;7.13;;;25.20;69.80;;;;;;5017375;28;20230;-60
2023/06/01 18:23:01;;;;;;;14.02;7.43;;;25.10;70.30;;;;;;5014165;28;20253;-60
2023/06/01 18:25:30;;;;;;;8.45;6.88;;;25.10;70.50;;;;;;5013407;28;20241;-60
2023/06/01 18:27:58;;;;;;;9.00;6.55;;;25.00;70.80;;;;;;5013538;28;20670;-60
2023/06/01 18:30:26;;;;;;;7.28;6.45;;;25.00;70.70;;;;;;5013374;28;20880;-59
2023/06/01 18:32:54;;;;;;;13.52;6.78;;;24.90;70.70;;;;;;5013741;28;20321;-59
2023/06/01 18:35:22;;;;;;;8.10;7.30;;;24.80;71.10;;;;;;5013330;28;20207;-61
2023/06/01 18:37:50;;;;;;;10.88;6.60;;;24.80;70.70;;;;;;5013575;28;20210;-60
2023/06/01 18:40:19;;;;;;;14.60;6.68;;;24.70;71.40;;;;;;5013168;28;20265;-60
2023/06/01 18:42:48;;;;;;;8.55;6.05;;;24.70;72.60;;;;;;5013450;28;20206;-60
2023/06/01 18:45:16;;;;;;;7.55;5.40;;;24.60;74.00;;;;;;5013145;28;20222;-60
2023/06/01 18:47:44;;;;;;;8.63;5.43;;;24.60;75.20;;;;;;5011364;28;20250;-60
2023/06/01 18:50:12;;;;;;;11.90;4.95;;;24.50;76.50;;;;;;5012596;28;20288;-59
2023/06/01 18:52:42;;;;;;;5.93;4.38;;;24.50;77.20;;;;;;5013022;28;20317;-60
2023/06/01 18:55:12;;;;;;;9.98;4.65;;;24.40;77.70;;;;;;5011051;28;20310;-60
2023/06/01 18:57:40;;;;;;;7.35;4.85;;;24.40;78.30;;;;;;5009418;28;20239;-60
2023/06/01 19:00:11;;;;;;;5.85;4.43;;;24.40;79.30;;;;;;5005738;28;20231;-60
2023/06/01 19:02:41;;;;;;;4.57;4.18;;;24.30;79.30;;;;;;5008941;28;20202;-60
2023/06/01 19:05:09;;;;;;;5.03;4.22;;;24.30;79.50;;;;;;5010048;28;20206;-60
2023/06/01 19:07:38;;;;;;;7.07;4.40;;;24.20;79.40;;;;;;5009517;28;20253;-60
2023/06/01 19:10:07;;;;;;;7.43;4.28;;;24.20;80.30;;;;;;5005914;28;20223;-59
2023/06/01 19:12:35;;;;;;;6.50;4.45;;;24.20;80.40;;;;;;5003635;28;20297;-60
2023/06/01 19:15:06;;;;;;;5.47;3.92;;;24.20;80.80;;;;;;5011116;28;20249;-60
2023/06/01 19:17:36;;;;;;;4.90;4.00;;;24.00;81.20;;;;;;5011356;28;20207;-60
2023/06/01 19:20:05;;;;;;;8.88;4.45;;;23.90;81.80;;;;;;5010245;28;20722;-61
2023/06/01 19:22:34;;;;;;;5.18;4.68;;;23.80;82.40;;;;;;5011348;28;20354;-60
2023/06/01 19:25:02;;;;;;;10.35;4.85;;;23.60;82.80;;;;;;5010899;28;20285;-60
2023/06/01 19:27:30;;;;;;;7.15;3.97;;;23.60;83.30;;;;;;5011214;28;20203;-60
2023/06/01 19:29:57;;;;;;;7.25;4.65;;;23.50;84.00;;;;;;5010799;28;20672;-61
2023/06/01 19:32:25;;;;;;;8.15;4.75;;;23.50;84.40;;;;;;5010902;28;20249;-60
2023/06/01 19:34:55;;;;;;;4.97;4.20;;;23.50;85.60;;;;;;5010827;28;20206;-60
2023/06/01 19:37:24;;;;;;;6.85;4.70;;;23.50;86.10;;;;;;5010913;28;20768;-60
2023/06/01 19:39:52;;;;;;;5.07;4.53;;;23.40;86.40;;;;;;5010944;28;20270;-60
2023/06/01 19:42:30;;;;;;;6.53;4.40;;;23.40;86.80;;;;;;5010327;28;20241;-60
2023/06/01 19:44:59;;;;;;;4.90;4.43;;;23.30;87.60;;;;;;5009098;28;20218;-60
2023/06/01 19:47:36;;;;;;;7.95;4.13;;;23.20;87.90;;;;;;5008861;28;20211;-60
2023/06/01 19:50:07;;;;;;;7.22;4.32;;;23.20;88.50;;;;;;5003605;28;20218;-60
2023/06/01 19:52:39;;;;;;;7.82;4.85;;;23.10;88.80;;;;;;5010876;28;20253;-60
2023/06/01 19:55:07;;;;;;;7.70;4.55;;;23.10;89.10;;;;;;5009104;28;20821;-60
2023/06/01 19:57:35;;;;;;;9.07;4.90;;;23.00;89.30;;;;;;5010189;28;20202;-60
2023/06/01 20:00:04;;;;;;;7.85;4.93;;;22.90;89.80;;;;;;4997988;28;20592;-60
2023/06/01 20:02:43;;;;;;;11.15;5.10;;;22.80;90.00;;;;;;5007639;28;20285;-60
2023/06/01 20:05:13;;;;;;;7.13;4.25;;;22.70;90.30;;;;;;5010277;28;20206;-60
2023/06/01 20:07:41;;;;;;;6.20;4.70;;;22.70;90.60;;;;;;5010572;28;20270;-60
2023/06/01 20:10:15;;;;;;;7.20;4.68;;;22.60;90.90;;;;;;5010160;28;20262;-60
2023/06/01 20:12:43;;;;;;;6.15;4.43;;;22.60;91.30;;;;;;5010750;28;20211;-60
2023/06/01 20:15:11;;;;;;;8.98;5.07;;;22.50;91.50;;;;;;5010102;28;20261;-60
2023/06/01 20:17:39;;;;;;;6.25;4.28;;;22.50;91.60;;;;;;5010492;28;20210;-60
2023/06/01 20:20:07;;;;;;;7.03;5.03;;;22.50;92.10;;;;;;5010279;28;20230;-60
2023/06/01 20:22:36;;;;;;;7.60;4.68;;;22.50;92.20;;;;;;5010380;28;20734;-60
2023/06/01 20:25:05;;;;;;;8.20;4.32;;;22.40;92.60;;;;;;5009159;28;20272;-60
2023/06/01 20:27:34;;;;;;;5.65;4.68;;;22.40;92.70;;;;;;5011640;28;20230;-59
2023/06/01 20:30:03;;;;;;;7.07;4.70;;;22.40;93.00;;;;;;4991896;28;20235;-60
2023/06/01 20:32:31;;;;;;;5.60;4.65;;;22.30;93.30;;;;;;4995699;28;20644;-59
2023/06/01 20:34:58;;;;;;;6.72;4.60;;;22.30;93.60;;;;;;4995536;28;20261;-60
2023/06/01 20:37:26;;;;;;;5.97;4.70;;;22.30;94.00;;;;;;4996201;28;20211;-60
2023/06/01 20:39:56;;;;;;;10.88;4.90;;;22.20;94.30;;;;;;4998557;28;20757;-59
2023/06/01 20:42:23;;;;;;;5.97;4.53;;;22.10;94.70;;;;;;5014614;28;20199;-60
2023/06/01 20:44:51;;;;;;;8.43;5.45;;;22.10;95.00;;;;;;5007261;28;20261;-60
2023/06/01 20:47:19;;;;;;;6.97;4.85;;;22.00;95.20;;;;;;5015347;28;20254;-60
2023/06/01 20:49:47;;;;;;;5.03;4.57;;;21.90;95.60;;;;;;5014964;28;20265;-60
2023/06/01 20:52:15;;;;;;;6.22;4.68;;;21.70;96.20;;;;;;5015580;28;20242;-60
2023/06/01 20:54:43;;;;;;;9.82;4.63;;;21.60;97.20;;;;;;5015132;28;20274;-60
2023/06/01 20:57:12;;;;;;;10.18;5.20;;;21.50;97.40;;;;;;5012900;28;20288;-60
2023/06/01 20:59:40;;;;;;;6.80;4.90;;;21.40;98.10;;;;;;5014710;28;20600;-61
2023/06/01 21:02:08;;;;;;;7.15;5.18;;;21.40;98.80;;;;;;5014908;28;20207;-61
2023/06/01 21:04:38;;;;;;;5.93;4.75;;;21.30;99.60;;;;;;5014869;28;20230;-60
2023/06/01 21:07:06;;;;;;;8.55;5.00;;;21.10;99.90;;;;;;5015080;28;20207;-60
2023/06/01 21:09:34;;;;;;;7.05;4.45;;;21.10;99.90;;;;;;5015128;28;20230;-61
2023/06/01 21:12:03;;;;;;;10.98;5.18;;;21.00;99.90;;;;;;5014980;28;20672;-61
2023/06/01 21:14:32;;;;;;;8.43;4.32;;;21.00;99.90;;;;;;5014707;28;20227;-61
2023/06/01 21:17:00;;;;;;;13.57;5.25;;;20.90;99.90;;;;;;5015021;28;20208;-61
2023/06/01 21:19:28;;;;;;;6.70;4.97;;;20.90;99.90;;;;;;5015086;28;20254;-61
2023/06/01 21:21:56;;;;;;;7.18;4.75;;;20.70;99.90;;;;;;5014825;28;20257;-60
2023/06/01 21:24:24;;;;;;;11.27;5.72;;;20.50;99.90;;;;;;5014736;28;20725;-61
2023/06/01 21:26:52;;;;;;;7.38;5.30;;;20.30;99.90;;;;;;5014090;28;20210;-60
2023/06/01 21:29:20;;;;;;;7.85;5.22;;;20.20;99.90;;;;;;5014312;28;20811;-60
2023/06/01 21:31:50;;;;;;;6.80;5.38;;;20.20;99.90;;;;;;4996207;28;20208;-60
2023/06/01 21:34:18;;;;;;;7.50;4.82;;;20.00;99.90;;;;;;4995037;28;20223;-60
2023/06/01 21:36:46;;;;;;;5.57;5.07;;;20.00;99.90;;;;;;4994681;28;20214;-60
2023/06/01 21:39:14;;;;;;;7.70;5.18;;;20.00;99.90;;;;;;4994877;28;20227;-60
2023/06/01 21:41:42;;;;;;;8.63;5.53;;;19.90;99.90;;;;;;4994123;28;20211;-61
2023/06/01 21:44:10;;;;;;;9.68;5.50;;;19.80;99.90;;;;;;4994893;28;20254;-60
2023/06/01 21:46:37;;;;;;;11.27;5.97;;;19.80;99.90;;;;;;4994640;28;20207;-60
2023/06/01 21:49:07;;;;;;;10.82;5.70;;;19.60;99.90;;;;;;4994841;28;20257;-61
2023/06/01 21:51:36;;;;;;;8.10;5.88;;;19.60;99.90;;;;;;5003759;28;20202;-60
2023/06/01 21:54:04;;;;;;;6.43;5.30;;;19.60;99.90;;;;;;5013213;28;20611;-60
2023/06/01 21:56:32;;;;;;;11.00;6.10;;;19.50;99.90;;;;;;5011766;28;20203;-60
2023/06/01 21:59:00;;;;;;;7.28;6.22;;;19.50;99.90;;;;;;5010496;28;20807;-60
2023/06/01 22:01:28;;;;;;;6.50;5.70;;;19.30;99.90;;;;;;5013340;28;20305;-60
2023/06/01 22:03:56;;;;;;;9.75;6.25;;;19.30;99.90;;;;;;5012997;28;20253;-60
2023/06/01 22:06:26;;;;;;;9.82;6.70;;;19.20;99.90;;;;;;5013248;28;20674;-60
2023/06/01 22:08:53;;;;;;;11.40;6.13;;;19.10;99.90;;;;;;5010648;28;20620;-61
2023/06/01 22:11:21;;;;;;;9.45;5.85;;;18.90;99.90;;;;;;4994539;28;20215;-59
2023/06/01 22:13:50;;;;;;;9.23;6.10;;;18.80;99.90;;;;;;4994489;28;20215;-60
2023/06/01 22:16:18;;;;;;;9.82;5.43;;;18.80;99.90;;;;;;5001241;28;20223;-60
2023/06/01 22:18:46;;;;;;;10.45;6.40;;;18.70;99.90;;;;;;5013882;28;20662;-60
2023/06/01 22:21:14;;;;;;;6.03;5.43;;;18.60;99.90;;;;;;5013576;28;20214;-60
2023/06/01 22:23:43;;;;;;;7.07;5.38;;;18.50;99.90;;;;;;5013614;28;20210;-60
2023/06/01 22:26:11;;;;;;;7.05;5.82;;;18.40;99.90;;;;;;5013448;28;20579;-60
2023/06/01 22:28:40;;;;;;;8.95;6.25;;;18.40;99.90;;;;;;5013447;28;20215;-61
2023/06/01 22:31:10;;;;;;;10.07;5.70;;;18.30;99.90;;;;;;5013516;28;20230;-60
2023/06/01 22:33:38;;;;;;;8.38;5.85;;;18.20;99.90;;;;;;5013396;28;20216;-60
2023/06/01 22:36:06;;;;;;;10.27;6.22;;;18.20;99.90;;;;;;5013241;28;20222;-60
2023/06/01 22:38:34;;;;;;;8.05;6.22;;;18.10;99.90;;;;;;5013432;28;20671;-60
2023/06/01 22:41:04;;;;;;;11.20;6.32;;;18.10;99.90;;;;;;5013438;28;20211;-60
2023/06/01 22:43:32;;;;;;;8.30;6.05;;;18.00;99.90;;;;;;5013333;28;20214;-60
2023/06/01 22:45:59;;;;;;;9.40;5.55;;;18.00;99.90;;;;;;5012947;28;20213;-60
2023/06/01 22:48:28;;;;;;;10.52;5.80;;;18.00;99.90;;;;;;5013208;28;20210;-60
2023/06/01 22:50:56;;;;;;;8.57;5.55;;;18.00;99.90;;;;;;5013369;28;20207;-60
2023/06/01 22:53:24;;;;;;;8.05;5.20;;;18.00;99.90;;;;;;5012578;28;20206;-60
2023/06/01 22:55:52;;;;;;;7.47;5.70;;;17.90;99.90;;;;;;5012700;28;20725;-60
2023/06/01 22:58:22;;;;;;;10.23;5.43;;;18.00;99.90;;;;;;5013031;28;20809;-59
2023/06/01 23:00:50;;;;;;;8.15;5.32;;;17.90;99.90;;;;;;5012721;28;20241;-60
2023/06/01 23:03:18;;;;;;;6.05;4.78;;;17.80;99.90;;;;;;5013067;28;20203;-60
2023/06/01 23:05:49;;;;;;;5.70;4.78;;;17.80;99.90;;;;;;5011139;28;20282;-59
2023/06/01 23:08:19;;;;;;;7.82;5.20;;;17.80;99.90;;;;;;5010190;28;20215;-60
2023/06/01 23:10:49;;;;;;;5.75;5.07;;;17.70;99.90;;;;;;5010293;28;20582;-60
2023/06/01 23:13:22;;;;;;;6.70;5.45;;;17.70;99.90;;;;;;5012434;28;20256;-61
2023/06/01 23:15:54;;;;;;;7.30;4.80;;;17.60;99.90;;;;;;5011941;28;20226;-60
2023/06/01 23:18:22;;;;;;;5.05;4.40;;;17.50;99.90;;;;;;5012644;28;20202;-60
2023/06/01 23:20:52;;;;;;;4.97;4.43;;;17.40;99.90;;;;;;5012279;28;20226;-60
2023/06/01 23:23:20;;;;;;;5.22;4.72;;;17.30;99.90;;;;;;5012449;28;20753;-60
2023/06/01 23:25:48;;;;;;;5.15;4.65;;;17.10;99.90;;;;;;5011940;28;20577;-60
2023/06/01 23:28:16;;;;;;;6.70;5.53;;;17.10;99.90;;;;;;5012668;28;20214;-60
2023/06/01 23:30:44;;;;;;;4.82;4.28;;;17.10;99.90;;;;;;5082271;22;20284;-61
2023/06/01 23:33:14;;;;;;;4.55;4.18;;;17.00;99.90;;;;;;5088790;28;20253;-61
2023/06/01 23:35:43;;;;;;;7.72;4.88;;;16.90;99.90;;;;;;5085375;28;20564;-61
2023/06/01 23:38:11;;;;;;;4.70;4.30;;;16.80;99.90;;;;;;5075786;28;20224;-61
2023/06/01 23:40:39;;;;;;;4.80;4.20;;;16.70;99.90;;;;;;5084774;28;20614;-61
2023/06/01 23:43:06;;;;;;;9.38;4.57;;;16.70;99.90;;;;;;5080343;28;20727;-61
2023/06/01 23:45:36;;;;;;;5.18;4.65;;;16.60;99.90;;;;;;5071766;28;20643;-61
2023/06/01 23:48:05;;;;;;;4.72;4.13;;;16.60;99.90;;;;;;5071993;28;20204;-61
2023/06/01 23:50:35;;;;;;;5.40;4.90;;;16.50;99.90;;;;;;5071820;28;20726;-61
2023/06/01 23:53:03;;;;;;;8.68;4.95;;;16.50;99.90;;;;;;5071974;28;20282;-61
2023/06/01 23:55:31;;;;;;;7.07;4.90;;;16.40;99.90;;;;;;5071984;28;20232;-61
2023/06/01 23:57:59;;;;;;;7.95;4.70;;;16.40;99.90;;;;;;5072338;28;20232;-60
